createdAt,value
2022-08-09T00:00:29.195Z,100.00
2022-08-09T00:02:56.983Z,100.00
2022-08-09T00:06:19.789Z,100.00
2022-08-09T00:08:32.500Z,100.00
2022-08-09T00:11:00.726Z,100.00
2022-08-09T00:13:38.461Z,100.00
2022-08-09T00:16:07.829Z,100.00
2022-08-09T00:18:39.635Z,100.00
2022-08-09T00:21:08.725Z,100.00
2022-08-09T00:23:55.460Z,100.00
2022-08-09T00:26:32.740Z,100.00
2022-08-09T00:29:00.648Z,100.00
2022-08-09T00:31:58.362Z,100.00
2022-08-09T00:34:19.559Z,100.00
2022-08-09T00:36:48.822Z,100.00
2022-08-09T00:39:59.944Z,100.00
2022-08-09T00:44:16.791Z,100.00
2022-08-09T00:44:50.541Z,100.00
2022-08-09T00:47:17.284Z,100.00
2022-08-09T00:49:54.461Z,100.00
2022-08-09T00:52:28.055Z,100.00
2022-08-09T00:55:01.448Z,100.00
2022-08-09T00:57:34.389Z,100.00
2022-08-09T01:00:21.180Z,100.00
2022-08-09T01:03:07.702Z,100.00
2022-08-09T01:05:46.386Z,100.00
2022-08-09T01:08:27.141Z,100.00
2022-08-09T01:11:09.806Z,100.00
2022-08-09T01:14:00.106Z,100.00
2022-08-09T01:16:36.973Z,100.00
2022-08-09T01:19:39.607Z,100.00
2022-08-09T01:22:48.222Z,100.00
2022-08-09T01:25:30.380Z,100.00
2022-08-09T01:27:59.768Z,100.00
2022-08-09T01:30:35.790Z,100.00
2022-08-09T01:33:18.283Z,100.00
2022-08-09T01:36:03.245Z,100.00
2022-08-09T01:38:34.646Z,100.00
2022-08-09T01:41:12.048Z,100.00
2022-08-09T01:43:52.066Z,100.00
2022-08-09T01:46:32.483Z,100.00
2022-08-09T01:49:09.473Z,100.00
2022-08-09T01:51:44.369Z,100.00
2022-08-09T01:54:13.968Z,100.00
2022-08-09T01:56:47.115Z,100.00
2022-08-09T01:59:21.582Z,100.00
2022-08-09T02:02:00.184Z,100.00
2022-08-09T02:04:29.883Z,100.00
2022-08-09T02:08:00.124Z,100.00
2022-08-09T02:10:09.536Z,100.00
2022-08-09T02:12:37.809Z,100.00
2022-08-09T02:15:15.475Z,100.00
2022-08-09T02:18:00.594Z,100.00
2022-08-09T02:20:35.390Z,100.00
2022-08-09T02:23:12.101Z,100.00
2022-08-09T02:25:42.626Z,100.00
2022-08-09T02:28:20.688Z,100.00
2022-08-09T02:31:22.153Z,100.00
2022-08-09T02:34:06.480Z,100.00
2022-08-09T02:36:42.075Z,100.00
2022-08-09T02:39:39.897Z,100.00
2022-08-09T02:42:20.007Z,100.00
2022-08-09T02:44:59.098Z,100.00
2022-08-09T02:47:33.960Z,100.00
2022-08-09T02:50:31.493Z,100.00
2022-08-09T02:53:02.750Z,100.00
2022-08-09T02:55:46.747Z,100.00
2022-08-09T02:58:35.270Z,100.00
2022-08-09T03:01:08.291Z,100.00
2022-08-09T03:04:12.799Z,100.00
2022-08-09T03:06:28.030Z,100.00
2022-08-09T03:08:57.322Z,100.00
2022-08-09T03:11:30.056Z,100.00
2022-08-09T03:14:13.495Z,100.00
2022-08-09T03:16:47.511Z,100.00
2022-08-09T03:19:59.617Z,100.00
2022-08-09T03:22:11.773Z,100.00
2022-08-09T03:24:42.589Z,100.00
2022-08-09T03:27:21.557Z,100.00
2022-08-09T03:29:57.975Z,100.00
2022-08-09T03:32:37.177Z,100.00
2022-08-09T03:35:14.829Z,100.00
2022-08-09T03:37:54.389Z,100.00
2022-08-09T03:40:21.964Z,100.00
2022-08-09T03:42:51.655Z,100.00
2022-08-09T03:46:05.090Z,100.00
2022-08-09T03:48:05.618Z,100.00
2022-08-09T03:50:34.739Z,100.00
2022-08-09T03:53:05.183Z,100.00
2022-08-09T03:55:35.961Z,100.00
2022-08-09T03:58:09.933Z,100.00
2022-08-09T04:00:47.907Z,100.00
2022-08-09T04:03:24.561Z,100.00
2022-08-09T04:06:04.404Z,100.00
2022-08-09T04:08:32.355Z,100.00
2022-08-09T04:11:01.497Z,100.00
2022-08-09T04:14:37.261Z,100.00
2022-08-09T04:16:19.423Z,100.00
2022-08-09T04:18:47.116Z,100.00
2022-08-09T04:21:16.030Z,100.00
2022-08-09T04:23:54.530Z,100.00
2022-08-09T04:26:37.930Z,100.00
2022-08-09T04:29:10.807Z,100.00
2022-08-09T04:31:46.908Z,100.00
2022-08-09T04:34:14.577Z,100.00
2022-08-09T04:36:50.334Z,100.00
2022-08-09T04:39:17.308Z,100.00
2022-08-09T04:41:46.588Z,100.00
2022-08-09T04:44:14.706Z,100.00
2022-08-09T04:46:58.078Z,100.00
2022-08-09T04:49:53.846Z,100.00
2022-08-09T04:52:26.352Z,100.00
2022-08-09T04:54:56.572Z,100.00
2022-08-09T04:57:24.342Z,100.00
2022-08-09T04:59:54.143Z,100.00
2022-08-09T05:02:21.456Z,82.08
2022-08-09T05:04:48.714Z,70.19
2022-08-09T05:07:22.246Z,58.75
2022-08-09T05:09:50.392Z,59.87
2022-08-09T05:12:18.943Z,54.32
2022-08-09T05:14:52.449Z,50.30
2022-08-09T05:18:39.623Z,45.25
2022-08-09T05:20:06.974Z,45.30
2022-08-09T05:23:54.404Z,39.67
2022-08-09T05:25:21.692Z,41.18
2022-08-09T05:27:52.144Z,42.35
2022-08-09T05:30:29.927Z,38.22
2022-08-09T05:33:05.504Z,39.95
2022-08-09T05:35:45.879Z,40.16
2022-08-09T05:38:23.313Z,37.54
2022-08-09T05:40:55.580Z,34.96
2022-08-09T05:43:24.049Z,32.45
2022-08-09T05:45:57.964Z,30.61
2022-08-09T05:48:27.863Z,31.35
2022-08-09T05:51:16.824Z,30.55
2022-08-09T05:53:57.891Z,31.00
2022-08-09T05:56:26.155Z,28.72
2022-08-09T05:58:58.758Z,27.79
2022-08-09T06:01:33.772Z,28.54
2022-08-09T06:04:09.673Z,27.90
2022-08-09T06:06:49.687Z,30.31
2022-08-09T06:09:53.973Z,28.92
2022-08-09T06:12:17.594Z,26.61
2022-08-09T06:14:56.415Z,26.02
2022-08-09T06:17:39.778Z,24.39
2022-08-09T06:20:37.748Z,24.41
2022-08-09T06:23:07.899Z,23.42
2022-08-09T06:25:40.228Z,22.31
2022-08-09T06:28:10.226Z,22.00
2022-08-09T06:30:43.394Z,21.82
2022-08-09T06:33:30.388Z,22.18
2022-08-09T06:36:07.383Z,23.98
2022-08-09T06:38:47.331Z,23.44
2022-08-09T06:42:01.223Z,23.69
2022-08-09T06:44:21.686Z,22.34
2022-08-09T06:47:12.611Z,23.88
2022-08-09T06:50:13.505Z,22.58
2022-08-09T06:52:49.420Z,24.32
2022-08-09T06:55:57.256Z,23.59
2022-08-09T07:00:46.550Z,25.22
2022-08-09T07:04:48.052Z,22.93
2022-08-09T07:07:59.592Z,24.37
2022-08-09T07:10:14.285Z,24.87
2022-08-09T07:12:58.213Z,23.32
2022-08-09T07:16:38.627Z,24.03
2022-08-09T07:18:16.574Z,22.97
2022-08-09T07:20:47.826Z,24.76
2022-08-09T07:23:18.620Z,23.41
2022-08-09T07:25:48.092Z,24.64
2022-08-09T07:28:26.285Z,24.20
2022-08-09T07:30:55.499Z,23.72
2022-08-09T07:33:22.456Z,23.03
2022-08-09T07:35:54.212Z,23.39
2022-08-09T07:38:23.214Z,22.93
2022-08-09T07:41:00.961Z,23.85
2022-08-09T07:43:49.868Z,21.84
2022-08-09T07:46:22.433Z,24.56
2022-08-09T07:48:59.308Z,22.32
2022-08-09T07:52:04.613Z,23.57
2022-08-09T07:54:14.333Z,23.49
2022-08-09T07:56:48.660Z,23.49
2022-08-09T07:59:24.915Z,23.02
2022-08-09T08:01:55.986Z,21.56
2022-08-09T08:04:31.749Z,23.54
2022-08-09T08:07:15.551Z,24.91
2022-08-09T08:09:55.080Z,23.21
2022-08-09T08:12:43.184Z,23.86
2022-08-09T08:15:14.269Z,23.85
2022-08-09T08:17:53.941Z,24.05
2022-08-09T08:20:28.965Z,22.66
2022-08-09T08:23:03.693Z,22.10
2022-08-09T08:25:46.405Z,22.01
2022-08-09T08:28:18.421Z,22.20
2022-08-09T08:30:58.680Z,24.04
2022-08-09T08:33:25.420Z,25.03
2022-08-09T08:35:59.327Z,26.33
2022-08-09T08:38:29.617Z,24.79
2022-08-09T08:41:01.827Z,24.48
2022-08-09T08:43:33.248Z,25.63
2022-08-09T08:46:32.055Z,26.65
2022-08-09T08:48:54.009Z,26.56
2022-08-09T08:51:24.024Z,27.52
2022-08-09T08:54:03.640Z,29.22
2022-08-09T08:56:41.851Z,28.84
2022-08-09T08:59:19.465Z,28.12
2022-08-09T09:01:52.181Z,28.34
2022-08-09T09:04:26.982Z,27.78
2022-08-09T09:07:00.796Z,29.16
2022-08-09T09:10:02.067Z,27.73
2022-08-09T09:12:20.513Z,29.20
2022-08-09T09:14:49.975Z,28.50
2022-08-09T09:17:18.739Z,30.09
2022-08-09T09:19:47.750Z,26.96
2022-08-09T09:22:17.454Z,27.65
2022-08-09T09:26:02.599Z,29.44
2022-08-09T09:28:05.245Z,30.14
2022-08-09T09:30:41.065Z,29.73
2022-08-09T09:33:17.909Z,28.64
2022-08-09T09:36:01.329Z,26.53
2022-08-09T09:38:49.488Z,28.26
2022-08-09T09:41:33.304Z,27.57
2022-08-09T09:44:25.720Z,27.51
2022-08-09T09:47:08.579Z,28.40
2022-08-09T09:50:06.811Z,27.66
2022-08-09T09:52:35.957Z,29.22
2022-08-09T09:55:23.927Z,29.56
2022-08-09T09:58:17.376Z,29.20
2022-08-09T10:00:59.126Z,26.93
2022-08-09T10:03:57.130Z,27.85
2022-08-09T10:06:25.487Z,29.60
2022-08-09T10:09:00.733Z,30.00
2022-08-09T10:11:59.037Z,29.36
2022-08-09T10:14:30.276Z,29.16
2022-08-09T10:17:40.304Z,28.28
2022-08-09T10:19:57.233Z,27.97
2022-08-09T10:22:33.619Z,29.56
2022-08-09T10:25:14.467Z,29.19
2022-08-09T10:27:56.741Z,29.22
2022-08-09T10:32:13.259Z,30.45
2022-08-09T10:33:29.959Z,30.04
2022-08-09T10:36:11.572Z,29.72
2022-08-09T10:38:56.252Z,30.25
2022-08-09T10:41:24.260Z,28.02
2022-08-09T10:43:59.211Z,28.91
2022-08-09T10:46:57.671Z,30.13
2022-08-09T10:49:51.260Z,30.75
2022-08-09T10:52:29.542Z,32.11
2022-08-09T10:55:24.218Z,31.90
2022-08-09T10:57:55.504Z,31.61
2022-08-09T11:00:34.363Z,32.77
2022-08-09T11:03:16.209Z,31.16
2022-08-09T11:06:16.018Z,32.81
2022-08-09T11:08:51.089Z,30.22
2022-08-09T11:11:20.602Z,31.38
2022-08-09T11:14:09.273Z,31.85
2022-08-09T11:16:43.401Z,30.99
2022-08-09T11:19:13.795Z,31.42
2022-08-09T11:22:16.751Z,31.12
2022-08-09T11:24:57.849Z,29.71
2022-08-09T11:28:04.036Z,31.39
2022-08-09T11:30:34.320Z,28.86
2022-08-09T11:33:06.046Z,30.01
2022-08-09T11:35:55.468Z,30.74
2022-08-09T11:38:33.200Z,32.45
2022-08-09T11:41:14.238Z,31.34
2022-08-09T11:43:52.843Z,31.81
2022-08-09T11:46:32.894Z,31.45
2022-08-09T11:49:05.450Z,32.51
2022-08-09T11:53:00.750Z,33.56
2022-08-09T11:55:52.020Z,32.88
2022-08-09T11:58:14.819Z,33.50
2022-08-09T12:00:53.078Z,34.96
2022-08-09T12:03:55.562Z,33.64
2022-08-09T12:06:17.624Z,28.88
2022-08-09T12:08:55.826Z,31.89
2022-08-09T12:11:26.646Z,30.72
2022-08-09T12:14:07.602Z,28.94
2022-08-09T12:16:43.136Z,28.23
2022-08-09T12:19:14.083Z,29.50
2022-08-09T12:21:50.437Z,29.86
2022-08-09T12:24:25.190Z,29.17
2022-08-09T12:29:14.711Z,32.30
2022-08-09T12:30:01.725Z,28.01
2022-08-09T12:32:44.636Z,30.36
2022-08-09T12:35:13.382Z,27.39
2022-08-09T12:37:51.517Z,25.75
2022-08-09T12:40:21.278Z,27.02
2022-08-09T12:42:50.956Z,25.42
2022-08-09T12:45:32.812Z,25.85
2022-08-09T12:48:07.906Z,25.25
2022-08-09T12:50:47.050Z,26.73
2022-08-09T12:53:44.911Z,28.90
2022-08-09T12:56:39.241Z,26.36
2022-08-09T12:59:14.302Z,28.63
2022-08-09T13:01:48.749Z,27.42
2022-08-09T13:04:35.826Z,30.07
2022-08-09T13:07:19.595Z,28.15
2022-08-09T13:09:55.181Z,29.35
2022-08-09T13:12:26.862Z,30.93
2022-08-09T13:15:04.638Z,29.97
2022-08-09T13:18:03.177Z,29.09
2022-08-09T13:21:04.228Z,29.37
2022-08-09T13:24:16.602Z,29.08
2022-08-09T13:26:50.076Z,28.42
2022-08-09T13:29:18.570Z,28.62
2022-08-09T13:32:17.898Z,30.00
2022-08-09T13:34:52.452Z,32.31
2022-08-09T13:37:24.729Z,31.14
2022-08-09T13:41:55.281Z,28.75
2022-08-09T13:42:55.777Z,31.54
2022-08-09T13:45:32.143Z,31.79
2022-08-09T13:48:10.643Z,31.59
2022-08-09T13:50:40.758Z,30.69
2022-08-09T13:53:08.151Z,29.45
2022-08-09T13:55:37.139Z,28.32
2022-08-09T13:58:05.237Z,32.58
2022-08-09T14:00:46.700Z,31.31
2022-08-09T14:04:03.767Z,29.99
2022-08-09T14:06:03.410Z,30.63
2022-08-09T14:08:39.487Z,29.88
2022-08-09T14:11:16.367Z,30.61
2022-08-09T14:14:22.195Z,31.78
2022-08-09T14:16:32.305Z,31.59
2022-08-09T14:19:01.633Z,31.76
2022-08-09T14:21:29.411Z,28.75
2022-08-09T14:24:05.454Z,30.15
2022-08-09T14:26:38.617Z,30.71
2022-08-09T14:30:04.172Z,29.40
2022-08-09T14:31:55.230Z,32.15
2022-08-09T14:34:34.476Z,30.07
2022-08-09T14:37:06.534Z,30.72
2022-08-09T14:39:40.461Z,32.05
2022-08-09T14:42:38.963Z,31.40
2022-08-09T14:46:45.901Z,32.82
2022-08-09T14:47:57.408Z,33.09
2022-08-09T14:50:27.578Z,32.13
2022-08-09T14:52:55.004Z,34.43
2022-08-09T14:55:21.779Z,34.54
2022-08-09T14:57:50.291Z,33.88
2022-08-09T15:00:17.735Z,33.22
2022-08-09T15:02:47.338Z,33.39
2022-08-09T15:05:16.135Z,32.36
2022-08-09T15:07:45.545Z,32.40
2022-08-09T15:10:24.803Z,32.93
2022-08-09T15:12:52.734Z,32.49
2022-08-09T15:15:20.353Z,32.45
2022-08-09T15:17:52.383Z,34.88
2022-08-09T15:21:55.797Z,33.92
2022-08-09T15:24:03.138Z,32.94
2022-08-09T15:25:55.654Z,33.89
2022-08-09T15:28:28.284Z,33.18
2022-08-09T15:31:10.229Z,33.60
2022-08-09T15:34:15.472Z,35.89
2022-08-09T15:36:30.314Z,34.59
2022-08-09T15:39:01.521Z,37.34
2022-08-09T15:41:31.354Z,32.98
2022-08-09T15:44:19.736Z,34.56
2022-08-09T15:46:49.598Z,35.53
2022-08-09T15:49:22.114Z,33.83
2022-08-09T15:52:05.246Z,35.51
2022-08-09T15:54:49.028Z,34.65
2022-08-09T15:57:36.013Z,33.23
2022-08-09T16:00:14.084Z,33.11
2022-08-09T16:02:54.058Z,34.28
2022-08-09T16:05:23.802Z,32.84
2022-08-09T16:07:51.052Z,34.85
2022-08-09T16:10:54.997Z,34.01
2022-08-09T16:13:21.154Z,34.16
2022-08-09T16:16:10.393Z,34.11
2022-08-09T16:18:44.650Z,35.09
2022-08-09T16:21:17.224Z,35.25
2022-08-09T16:23:55.432Z,33.90
2022-08-09T16:26:35.186Z,34.46
2022-08-09T16:29:20.383Z,34.57
2022-08-09T16:32:19.621Z,34.32
2022-08-09T16:34:56.889Z,33.89
2022-08-09T16:37:55.328Z,33.83
2022-08-09T16:40:29.781Z,35.52
2022-08-09T16:43:02.371Z,36.04
2022-08-09T16:45:29.221Z,35.68
2022-08-09T16:48:39.115Z,37.02
2022-08-09T16:50:49.629Z,34.79
2022-08-09T16:53:26.788Z,35.65
2022-08-09T16:56:03.562Z,35.20
2022-08-09T16:58:36.750Z,33.72
2022-08-09T17:01:06.236Z,34.19
2022-08-09T17:03:34.723Z,34.45
2022-08-09T17:06:06.853Z,34.63
2022-08-09T17:09:01.446Z,34.73
2022-08-09T17:11:40.542Z,37.46
2022-08-09T17:14:25.467Z,38.15
2022-08-09T17:17:01.500Z,38.18
2022-08-09T17:19:47.128Z,38.14
2022-08-09T17:22:35.671Z,39.60
2022-08-09T17:25:11.620Z,37.89
2022-08-09T17:27:48.834Z,39.19
2022-08-09T17:30:16.870Z,39.91
2022-08-09T17:32:47.885Z,42.17
2022-08-09T17:35:16.281Z,41.81
2022-08-09T17:38:12.745Z,42.06
2022-08-09T17:40:36.196Z,42.51
2022-08-09T17:43:33.212Z,42.93
2022-08-09T17:46:03.322Z,47.99
2022-08-09T17:48:34.019Z,53.28
2022-08-09T17:51:09.004Z,53.67
2022-08-09T17:53:43.298Z,46.98
2022-08-09T17:56:15.100Z,46.38
2022-08-09T17:58:45.412Z,46.74
2022-08-09T18:01:22.144Z,45.36
2022-08-09T18:03:49.557Z,52.10
2022-08-09T18:06:32.046Z,54.46
2022-08-09T18:09:03.125Z,56.90
2022-08-09T18:11:46.790Z,56.84
2022-08-09T18:14:21.173Z,58.21
2022-08-09T18:16:49.586Z,58.48
2022-08-09T18:20:55.889Z,59.44
2022-08-09T18:22:13.193Z,58.95
2022-08-09T18:24:46.354Z,61.50
2022-08-09T18:27:33.652Z,61.02
2022-08-09T18:30:35.148Z,63.67
2022-08-09T18:32:54.545Z,66.14
2022-08-09T18:35:48.030Z,66.47
2022-08-09T18:38:12.633Z,66.95
2022-08-09T18:40:40.112Z,70.73
2022-08-09T18:43:08.949Z,69.84
2022-08-09T18:46:46.643Z,72.65
2022-08-09T18:48:30.426Z,70.78
2022-08-09T18:51:02.168Z,71.51
2022-08-09T18:53:36.774Z,72.68
2022-08-09T18:56:19.915Z,75.26
2022-08-09T18:58:55.500Z,72.69
2022-08-09T19:01:23.526Z,73.48
2022-08-09T19:04:00.914Z,69.85
2022-08-09T19:06:34.155Z,72.96
2022-08-09T19:09:02.453Z,73.52
2022-08-09T19:11:37.363Z,77.15
2022-08-09T19:14:06.639Z,76.99
2022-08-09T19:16:36.664Z,77.88
2022-08-09T19:19:21.488Z,79.61
2022-08-09T19:22:06.372Z,80.53
2022-08-09T19:25:07.444Z,79.57
2022-08-09T19:27:21.953Z,82.89
2022-08-09T19:30:25.305Z,81.99
2022-08-09T19:32:36.767Z,84.55
2022-08-09T19:44:01.784Z,85.90
2022-08-09T19:46:35.326Z,84.84
2022-08-09T19:50:07.709Z,86.95
2022-08-09T19:51:56.054Z,86.17
2022-08-09T19:54:29.755Z,90.73
2022-08-09T19:56:57.242Z,92.60
2022-08-09T19:59:58.587Z,91.39
2022-08-09T20:02:17.258Z,92.25
2022-08-09T20:05:01.440Z,92.84
2022-08-09T20:07:57.111Z,92.08
2022-08-09T20:10:22.415Z,98.65
2022-08-09T20:12:54.962Z,95.82
2022-08-09T20:16:37.626Z,95.92
2022-08-09T20:18:10.594Z,96.60
2022-08-09T20:20:39.131Z,98.41
2022-08-09T20:23:06.900Z,94.50
2022-08-09T20:25:51.340Z,100.00
2022-08-09T20:28:27.774Z,100.00
2022-08-09T20:31:05.006Z,100.00
2022-08-09T20:33:39.237Z,100.00
2022-08-09T20:36:09.083Z,100.00
2022-08-09T20:39:07.177Z,100.00
2022-08-09T20:41:32.020Z,100.00
2022-08-09T20:44:02.821Z,100.00
2022-08-09T20:46:43.302Z,100.00
2022-08-09T20:49:16.092Z,100.00
2022-08-09T20:51:44.403Z,100.00
2022-08-09T20:54:12.929Z,100.00
2022-08-09T20:56:53.478Z,100.00
2022-08-09T20:59:50.264Z,100.00
2022-08-09T21:02:10.840Z,100.00
2022-08-09T21:05:54.696Z,100.00
2022-08-09T21:07:38.516Z,100.00
2022-08-09T21:10:06.105Z,100.00
2022-08-09T21:12:37.006Z,100.00
2022-08-09T21:15:05.353Z,100.00
2022-08-09T21:18:20.931Z,100.00
2022-08-09T21:20:26.697Z,100.00
2022-08-09T21:22:57.357Z,100.00
2022-08-09T21:25:43.990Z,100.00
2022-08-09T21:28:34.950Z,100.00
2022-08-09T21:31:17.212Z,100.00
2022-08-09T21:33:57.007Z,100.00
2022-08-09T21:36:28.752Z,100.00
2022-08-09T21:38:59.237Z,100.00
2022-08-09T21:42:04.148Z,100.00
2022-08-09T21:44:32.983Z,100.00
2022-08-09T21:47:08.865Z,100.00
2022-08-09T21:49:42.955Z,100.00
2022-08-09T21:52:14.743Z,100.00
2022-08-09T21:54:46.233Z,100.00
2022-08-09T21:57:37.137Z,100.00
2022-08-09T22:00:06.825Z,100.00
2022-08-09T22:02:36.320Z,100.00
2022-08-09T22:05:17.143Z,100.00
2022-08-09T22:07:52.224Z,100.00
2022-08-09T22:10:22.821Z,100.00
2022-08-09T22:12:50.218Z,100.00
2022-08-09T22:15:17.083Z,100.00
2022-08-09T22:17:44.788Z,100.00
2022-08-09T22:20:16.990Z,100.00
2022-08-09T22:22:49.439Z,100.00
2022-08-09T22:26:07.585Z,100.00
2022-08-09T22:28:08.599Z,100.00
2022-08-09T22:30:35.291Z,100.00
2022-08-09T22:33:09.253Z,100.00
2022-08-09T22:36:02.867Z,100.00
2022-08-09T22:38:24.592Z,100.00
2022-08-09T22:40:57.792Z,100.00
2022-08-09T22:44:01.666Z,100.00
2022-08-09T22:48:11.598Z,100.00
2022-08-09T22:49:01.944Z,100.00
2022-08-09T22:51:39.425Z,100.00
2022-08-09T22:54:12.784Z,100.00
2022-08-09T22:56:41.522Z,100.00
2022-08-09T22:59:56.001Z,100.00
2022-08-09T23:01:56.134Z,100.00
2022-08-09T23:04:25.478Z,100.00
2022-08-09T23:07:14.193Z,100.00
2022-08-09T23:09:44.345Z,100.00
2022-08-09T23:12:11.069Z,100.00
2022-08-09T23:14:42.248Z,100.00
2022-08-09T23:17:10.591Z,100.00
2022-08-09T23:20:06.715Z,100.00
2022-08-09T23:22:27.590Z,100.00
2022-08-09T23:24:54.342Z,100.00
2022-08-09T23:27:21.084Z,100.00
2022-08-09T23:29:47.745Z,100.00
2022-08-09T23:32:14.506Z,100.00
2022-08-09T23:34:41.189Z,100.00
2022-08-09T23:37:08.154Z,100.00
2022-08-09T23:39:35.022Z,100.00
2022-08-09T23:42:02.038Z,100.00
2022-08-09T23:44:28.721Z,100.00
2022-08-09T23:46:57.328Z,100.00
2022-08-09T23:49:25.896Z,100.00
2022-08-09T23:51:53.632Z,100.00
2022-08-09T23:54:26.449Z,100.00
2022-08-09T23:56:55.858Z,100.00
2022-08-09T23:59:26.026Z,100.00
